createdAt,value
2022-11-13T00:01:26.416Z,9.95
2022-11-13T00:04:12.878Z,9.96
2022-11-13T00:06:59.628Z,9.97
2022-11-13T00:09:45.413Z,10.00
2022-11-13T00:12:31.291Z,9.99
2022-11-13T00:15:16.790Z,10.00
2022-11-13T00:18:03.422Z,9.95
2022-11-13T00:20:48.951Z,9.91
2022-11-13T00:23:35.816Z,9.87
2022-11-13T00:26:28.329Z,9.80
2022-11-13T00:29:14.022Z,9.74
2022-11-13T00:32:00.231Z,9.67
2022-11-13T00:34:48.375Z,9.62
2022-11-13T00:37:34.370Z,9.50
2022-11-13T00:40:20.180Z,9.36
2022-11-13T00:43:05.480Z,9.28
2022-11-13T00:45:50.953Z,9.20
2022-11-13T00:48:37.021Z,9.15
2022-11-13T00:51:23.080Z,9.12
2022-11-13T00:54:08.433Z,9.09
2022-11-13T00:56:53.850Z,8.99
2022-11-13T00:59:39.270Z,8.97
2022-11-13T01:02:24.591Z,8.95
2022-11-13T01:05:10.234Z,8.90
2022-11-13T01:07:56.070Z,8.88
2022-11-13T01:10:51.867Z,8.84
2022-11-13T01:13:40.732Z,8.82
2022-11-13T01:16:28.420Z,8.80
2022-11-13T01:19:14.451Z,8.77
2022-11-13T01:22:00.180Z,8.80
2022-11-13T01:24:45.706Z,8.76
2022-11-13T01:27:31.998Z,8.71
2022-11-13T01:30:17.668Z,8.72
2022-11-13T01:33:03.331Z,8.70
2022-11-13T01:35:48.870Z,8.68
2022-11-13T01:38:36.826Z,8.68
2022-11-13T01:41:32.002Z,8.62
2022-11-13T01:44:19.290Z,8.62
2022-11-13T01:47:05.330Z,8.66
2022-11-13T01:49:57.529Z,8.65
2022-11-13T01:52:43.391Z,8.62
2022-11-13T01:55:29.690Z,8.64
2022-11-13T01:58:16.661Z,8.56
2022-11-13T02:01:03.071Z,8.54
2022-11-13T02:03:48.602Z,8.53
2022-11-13T02:06:42.883Z,8.49
2022-11-13T02:09:33.821Z,8.45
2022-11-13T02:12:25.671Z,8.40
2022-11-13T02:15:11.419Z,8.35
2022-11-13T02:18:00.173Z,8.27
2022-11-13T02:21:01.111Z,8.06
2022-11-13T02:24:20.830Z,7.97
2022-11-13T02:27:11.194Z,7.83
2022-11-13T02:29:56.712Z,7.78
2022-11-13T02:32:47.770Z,7.75
2022-11-13T02:35:37.931Z,7.70
2022-11-13T02:38:24.070Z,7.72
2022-11-13T02:41:09.632Z,7.71
2022-11-13T02:43:55.270Z,7.68
2022-11-13T02:46:40.672Z,7.67
2022-11-13T02:49:26.435Z,7.64
2022-11-13T02:52:12.273Z,7.66
2022-11-13T02:54:57.855Z,7.66
2022-11-13T02:57:43.474Z,7.63
2022-11-13T03:00:28.973Z,7.64
2022-11-13T03:03:21.218Z,7.66
2022-11-13T03:06:14.852Z,7.64
2022-11-13T03:09:00.671Z,7.67
2022-11-13T03:11:46.112Z,7.67
2022-11-13T03:14:31.991Z,7.67
2022-11-13T03:17:17.970Z,7.66
2022-11-13T03:20:05.051Z,7.66
2022-11-13T03:22:50.951Z,7.63
2022-11-13T03:25:36.614Z,7.66
2022-11-13T03:28:22.111Z,7.65
2022-11-13T03:31:08.391Z,7.69
2022-11-13T03:33:54.391Z,7.70
2022-11-13T03:36:40.271Z,7.67
2022-11-13T03:39:25.931Z,7.63
2022-11-13T03:42:11.550Z,7.60
2022-11-13T03:44:57.239Z,7.53
2022-11-13T03:47:43.010Z,7.50
2022-11-13T03:50:29.311Z,7.42
2022-11-13T03:53:15.371Z,7.36
2022-11-13T03:56:01.590Z,7.23
2022-11-13T03:58:49.697Z,7.17
2022-11-13T04:01:35.459Z,7.11
2022-11-13T04:04:21.030Z,7.11
2022-11-13T04:07:06.627Z,7.07
2022-11-13T04:09:52.071Z,7.06
2022-11-13T04:12:37.570Z,7.02
2022-11-13T04:15:23.491Z,6.97
2022-11-13T04:18:09.113Z,6.91
2022-11-13T04:21:00.273Z,6.87
2022-11-13T04:23:46.031Z,6.92
2022-11-13T04:26:31.409Z,6.89
2022-11-13T04:29:17.031Z,6.93
2022-11-13T04:32:02.851Z,6.99
2022-11-13T04:34:48.211Z,7.01
2022-11-13T04:37:33.821Z,7.01
2022-11-13T04:40:19.171Z,6.97
2022-11-13T04:43:05.051Z,6.98
2022-11-13T04:45:53.137Z,6.96
2022-11-13T04:48:38.531Z,6.92
2022-11-13T04:51:24.429Z,6.79
2022-11-13T04:54:10.150Z,6.74
2022-11-13T04:56:55.972Z,6.71
2022-11-13T04:59:41.949Z,6.64
2022-11-13T05:02:27.897Z,6.61
2022-11-13T05:05:13.509Z,6.56
2022-11-13T05:07:59.370Z,6.52
2022-11-13T05:10:44.829Z,6.44
2022-11-13T05:13:35.108Z,6.34
2022-11-13T05:16:20.590Z,6.26
2022-11-13T05:19:07.293Z,6.13
2022-11-13T05:21:53.446Z,6.17
2022-11-13T05:24:39.129Z,6.17
2022-11-13T05:27:25.368Z,6.20
2022-11-13T05:30:11.368Z,6.15
2022-11-13T05:32:56.966Z,6.16
2022-11-13T05:35:42.731Z,6.17
2022-11-13T05:38:29.677Z,6.19
2022-11-13T05:41:21.849Z,6.22
2022-11-13T05:44:07.886Z,6.26
2022-11-13T05:46:53.446Z,6.32
2022-11-13T05:49:39.414Z,6.35
2022-11-13T05:52:24.885Z,6.46
2022-11-13T05:55:10.856Z,6.49
2022-11-13T05:57:58.927Z,6.53
2022-11-13T06:00:44.606Z,6.68
2022-11-13T06:03:30.614Z,6.74
2022-11-13T06:06:19.249Z,6.81
2022-11-13T06:09:06.289Z,6.88
2022-11-13T06:11:51.927Z,6.95
2022-11-13T06:14:37.446Z,6.99
2022-11-13T06:17:23.247Z,7.01
2022-11-13T06:20:09.687Z,7.07
2022-11-13T06:22:55.327Z,7.18
2022-11-13T06:25:41.255Z,7.24
2022-11-13T06:28:27.634Z,7.30
2022-11-13T06:31:16.085Z,7.31
2022-11-13T06:34:02.215Z,7.32
2022-11-13T06:36:48.328Z,7.29
2022-11-13T06:39:34.167Z,7.29
2022-11-13T06:42:20.171Z,7.37
2022-11-13T06:45:06.569Z,7.41
2022-11-13T06:47:54.046Z,7.46
2022-11-13T06:50:40.379Z,7.55
2022-11-13T06:53:28.772Z,7.64
2022-11-13T06:56:14.408Z,7.73
2022-11-13T06:59:00.388Z,7.82
2022-11-13T07:01:46.128Z,7.89
2022-11-13T07:04:31.933Z,7.99
2022-11-13T07:07:17.805Z,8.06
2022-11-13T07:10:03.898Z,8.08
2022-11-13T07:12:53.578Z,8.14
2022-11-13T07:15:40.606Z,8.20
2022-11-13T07:18:26.626Z,8.25
2022-11-13T07:21:13.894Z,8.25
2022-11-13T07:23:59.807Z,8.27
2022-11-13T07:26:45.446Z,8.20
2022-11-13T07:29:31.095Z,8.31
2022-11-13T07:32:16.978Z,8.36
2022-11-13T07:35:02.530Z,8.43
2022-11-13T07:37:48.487Z,8.48
2022-11-13T07:40:34.368Z,8.57
2022-11-13T07:43:20.289Z,8.59
2022-11-13T07:46:06.088Z,8.69
2022-11-13T07:48:51.888Z,8.79
2022-11-13T07:51:37.814Z,8.85
2022-11-13T07:54:23.732Z,8.90
2022-11-13T07:57:10.166Z,8.86
2022-11-13T07:59:55.650Z,8.88
2022-11-13T08:02:41.416Z,8.94
2022-11-13T08:05:27.168Z,9.00
2022-11-13T08:08:14.489Z,9.06
2022-11-13T08:11:04.528Z,9.19
2022-11-13T08:13:50.408Z,9.27
2022-11-13T08:16:36.369Z,9.37
2022-11-13T08:19:22.169Z,9.45
2022-11-13T08:22:07.928Z,9.55
2022-11-13T08:24:54.168Z,9.65
2022-11-13T08:27:39.893Z,9.73
2022-11-13T08:30:27.310Z,9.84
2022-11-13T08:33:13.255Z,9.93
2022-11-13T08:36:00.369Z,10.04
2022-11-13T08:38:48.450Z,10.14
2022-11-13T08:41:33.888Z,10.19
2022-11-13T08:44:19.491Z,10.19
2022-11-13T08:47:05.449Z,10.37
2022-11-13T08:49:51.128Z,10.51
2022-11-13T08:52:37.176Z,10.63
2022-11-13T08:55:22.770Z,10.72
2022-11-13T08:58:09.447Z,10.82
2022-11-13T09:01:00.911Z,10.96
2022-11-13T09:03:49.237Z,11.07
2022-11-13T09:06:35.410Z,11.19
2022-11-13T09:09:22.209Z,11.30
2022-11-13T09:12:08.173Z,11.45
2022-11-13T09:14:54.010Z,11.58
2022-11-13T09:17:39.615Z,11.76
2022-11-13T09:20:27.066Z,11.96
2022-11-13T09:23:13.128Z,12.15
2022-11-13T09:26:03.010Z,12.37
2022-11-13T09:28:49.210Z,12.71
2022-11-13T09:31:34.889Z,12.79
2022-11-13T09:34:21.287Z,13.10
2022-11-13T09:37:06.809Z,13.23
2022-11-13T09:39:52.687Z,13.28
2022-11-13T09:42:40.647Z,13.55
2022-11-13T09:45:26.290Z,13.87
2022-11-13T09:48:34.968Z,14.04
2022-11-13T09:51:30.967Z,14.06
2022-11-13T09:54:17.572Z,14.14
2022-11-13T09:57:25.733Z,14.44
2022-11-13T10:00:14.847Z,14.56
2022-11-13T10:03:03.887Z,14.71
2022-11-13T10:06:18.767Z,14.72
2022-11-13T10:09:11.568Z,15.00
2022-11-13T10:12:03.493Z,15.22
2022-11-13T10:14:54.248Z,15.35
2022-11-13T10:17:46.607Z,15.34
2022-11-13T10:20:35.287Z,15.70
2022-11-13T10:23:24.971Z,15.91
2022-11-13T10:26:19.689Z,16.13
2022-11-13T10:29:20.007Z,16.11
2022-11-13T10:32:22.251Z,16.48
2022-11-13T10:35:07.889Z,16.60
2022-11-13T10:38:08.679Z,16.79
2022-11-13T10:41:10.249Z,16.82
2022-11-13T10:44:26.219Z,17.04
2022-11-13T10:47:15.211Z,17.16
2022-11-13T10:50:12.851Z,17.31
2022-11-13T10:52:59.129Z,17.40
2022-11-13T10:55:45.856Z,17.26
2022-11-13T10:58:32.133Z,17.50
2022-11-13T11:01:24.339Z,17.69
2022-11-13T11:04:30.335Z,17.72
2022-11-13T11:07:22.115Z,17.88
2022-11-13T11:10:36.888Z,18.12
2022-11-13T11:13:24.054Z,18.14
2022-11-13T11:16:15.172Z,18.25
2022-11-13T11:19:05.048Z,18.36
2022-11-13T11:21:59.051Z,18.33
2022-11-13T11:25:14.776Z,18.48
2022-11-13T11:28:39.016Z,18.47
2022-11-13T11:31:31.172Z,18.59
2022-11-13T11:34:25.413Z,18.87
2022-11-13T11:37:25.369Z,18.93
2022-11-13T11:40:27.410Z,18.77
2022-11-13T11:43:28.170Z,18.90
2022-11-13T11:46:15.450Z,19.03
2022-11-13T11:49:02.053Z,18.85
2022-11-13T11:52:26.571Z,18.91
2022-11-13T11:55:33.569Z,18.67
2022-11-13T11:58:28.736Z,18.26
2022-11-13T12:13:33.010Z,17.13
2022-11-13T12:16:33.769Z,17.29
2022-11-13T12:20:01.410Z,17.53
2022-11-13T12:23:02.770Z,17.98
2022-11-13T12:26:00.171Z,18.66
2022-11-13T12:28:58.817Z,19.44
2022-11-13T12:32:08.087Z,20.37
2022-11-13T12:35:01.977Z,21.41
2022-11-13T12:37:58.767Z,22.01
2022-11-13T12:40:53.586Z,22.10
2022-11-13T12:44:06.927Z,22.88
2022-11-13T12:46:54.593Z,23.48
2022-11-13T12:49:40.211Z,23.63
2022-11-13T12:52:25.889Z,23.97
2022-11-13T12:55:35.056Z,24.19
2022-11-13T12:58:30.050Z,24.32
2022-11-13T13:01:19.044Z,24.34
2022-11-13T13:04:26.527Z,24.55
2022-11-13T13:07:23.263Z,24.79
2022-11-13T13:10:18.448Z,24.61
2022-11-13T13:13:24.508Z,25.20
2022-11-13T13:16:11.527Z,25.32
2022-11-13T13:19:28.893Z,26.24
2022-11-13T13:22:29.169Z,26.23
2022-11-13T13:25:33.127Z,26.48
2022-11-13T13:28:24.414Z,26.44
2022-11-13T13:31:42.288Z,26.10
2022-11-13T13:34:34.906Z,25.07
2022-11-13T13:37:41.205Z,23.27
2022-11-13T13:40:33.965Z,22.52
2022-11-13T13:43:52.608Z,21.27
2022-11-13T13:46:38.424Z,20.21
2022-11-13T13:49:25.647Z,19.36
2022-11-13T13:52:16.375Z,18.63
2022-11-13T13:55:07.806Z,17.86
2022-11-13T13:57:53.690Z,17.37
2022-11-13T14:00:58.979Z,16.98
2022-11-13T14:03:45.212Z,16.58
2022-11-13T14:06:31.568Z,16.29
2022-11-13T14:09:35.377Z,15.94
2022-11-13T14:12:23.647Z,15.60
2022-11-13T14:15:30.932Z,15.30
2022-11-13T14:18:18.263Z,15.08
2022-11-13T14:21:17.808Z,14.89
2022-11-13T14:24:05.007Z,14.66
2022-11-13T14:26:54.769Z,14.51
2022-11-13T14:29:55.728Z,14.33
2022-11-13T14:32:46.775Z,14.14
2022-11-13T14:35:32.927Z,14.08
2022-11-13T14:38:26.496Z,13.95
2022-11-13T14:41:37.249Z,13.85
2022-11-13T14:44:32.333Z,13.84
2022-11-13T14:47:30.408Z,13.79
2022-11-13T14:50:23.570Z,13.73
2022-11-13T14:53:10.968Z,13.60
2022-11-13T14:56:09.531Z,13.55
2022-11-13T14:58:55.370Z,13.49
2022-11-13T15:01:41.702Z,13.44
2022-11-13T15:04:28.778Z,13.36
2022-11-13T15:07:32.878Z,13.13
2022-11-13T15:10:21.811Z,12.97
2022-11-13T15:13:15.810Z,12.90
2022-11-13T15:16:01.447Z,12.78
2022-11-13T15:18:51.009Z,12.69
2022-11-13T15:21:36.934Z,12.57
2022-11-13T15:24:22.933Z,12.48
2022-11-13T15:27:15.367Z,12.37
2022-11-13T15:30:00.972Z,12.27
2022-11-13T15:32:47.328Z,12.19
2022-11-13T15:35:33.409Z,12.12
2022-11-13T15:38:19.252Z,12.00
2022-11-13T15:41:14.810Z,11.90
2022-11-13T15:44:02.569Z,11.81
2022-11-13T15:46:48.168Z,11.76
2022-11-13T15:49:33.969Z,11.63
2022-11-13T15:52:20.786Z,11.60
2022-11-13T15:55:35.847Z,11.48
2022-11-13T15:58:21.648Z,11.42
2022-11-13T16:01:09.580Z,11.33
2022-11-13T16:03:58.448Z,11.28
2022-11-13T16:06:44.838Z,11.21
2022-11-13T16:09:31.289Z,11.13
2022-11-13T16:12:17.368Z,11.10
2022-11-13T16:15:03.328Z,11.07
2022-11-13T16:17:53.890Z,11.00
2022-11-13T16:20:39.650Z,10.93
2022-11-13T16:23:25.481Z,10.85
2022-11-13T16:26:24.168Z,10.81
2022-11-13T16:29:21.568Z,10.77
2022-11-13T16:32:15.020Z,10.67
2022-11-13T16:35:00.967Z,10.64
2022-11-13T16:37:47.454Z,10.63
2022-11-13T16:40:33.448Z,10.55
2022-11-13T16:43:19.446Z,10.49
2022-11-13T16:46:30.543Z,10.42
2022-11-13T16:49:19.687Z,10.37
2022-11-13T16:52:05.250Z,10.34
2022-11-13T16:54:51.806Z,10.31
2022-11-13T16:57:38.139Z,10.26
2022-11-13T17:00:27.657Z,10.27
2022-11-13T17:03:13.210Z,10.29
2022-11-13T17:05:59.008Z,10.28
2022-11-13T17:08:44.966Z,10.28
2022-11-13T17:11:32.448Z,10.29
2022-11-13T17:14:18.336Z,10.29
2022-11-13T17:17:10.422Z,10.22
2022-11-13T17:19:58.374Z,10.20
2022-11-13T17:22:56.468Z,10.13
2022-11-13T17:25:46.127Z,10.09
2022-11-13T17:28:36.902Z,10.03
2022-11-13T17:31:23.675Z,9.99
2022-11-13T17:34:09.338Z,9.98
2022-11-13T17:36:55.258Z,9.96
2022-11-13T17:39:40.971Z,9.95
2022-11-13T17:42:29.268Z,9.96
2022-11-13T17:45:14.771Z,9.95
2022-11-13T17:48:00.407Z,9.91
2022-11-13T17:50:57.009Z,9.84
2022-11-13T17:53:43.174Z,9.81
2022-11-13T17:56:28.776Z,9.81
2022-11-13T17:59:14.527Z,9.77
2022-11-13T18:02:00.794Z,9.77
2022-11-13T18:04:46.375Z,9.74
2022-11-13T18:07:32.848Z,9.76
2022-11-13T18:10:19.256Z,9.75
2022-11-13T18:13:06.250Z,9.71
2022-11-13T18:15:51.977Z,9.68
2022-11-13T18:18:37.575Z,9.69
2022-11-13T18:21:26.568Z,9.71
2022-11-13T18:24:18.250Z,9.76
2022-11-13T18:27:06.671Z,9.80
2022-11-13T18:29:56.368Z,9.85
2022-11-13T18:32:42.623Z,9.87
2022-11-13T18:35:28.540Z,9.89
2022-11-13T18:38:14.768Z,9.80
2022-11-13T18:41:05.451Z,9.92
2022-11-13T18:43:52.374Z,10.01
2022-11-13T18:46:38.209Z,10.00
2022-11-13T18:49:24.135Z,10.03
2022-11-13T18:52:10.168Z,10.05
2022-11-13T18:54:55.857Z,10.10
2022-11-13T18:57:42.665Z,10.12
2022-11-13T19:00:28.455Z,10.10
2022-11-13T19:03:14.451Z,10.13
2022-11-13T19:06:00.169Z,10.11
2022-11-13T19:08:47.090Z,10.19
2022-11-13T19:11:33.408Z,10.16
2022-11-13T19:14:20.370Z,10.19
2022-11-13T19:17:05.974Z,10.24
2022-11-13T19:19:51.815Z,10.28
2022-11-13T19:22:37.849Z,10.27
2022-11-13T19:25:23.778Z,10.29
2022-11-13T19:28:09.733Z,10.31
2022-11-13T19:30:55.889Z,10.25
2022-11-13T19:33:42.099Z,10.13
2022-11-13T19:36:29.610Z,10.20
2022-11-13T19:39:16.609Z,10.24
2022-11-13T19:42:02.179Z,10.20
2022-11-13T19:44:48.897Z,10.21
2022-11-13T19:47:35.378Z,10.25
2022-11-13T19:50:21.579Z,10.30
2022-11-13T19:53:09.071Z,10.35
2022-11-13T19:55:56.067Z,10.39
2022-11-13T19:58:44.595Z,10.42
2022-11-13T20:01:32.292Z,10.47
2022-11-13T20:04:18.170Z,10.48
2022-11-13T20:07:04.044Z,10.51
2022-11-13T20:09:49.895Z,10.50
2022-11-13T20:12:35.377Z,10.50
2022-11-13T20:15:21.298Z,10.39
2022-11-13T20:18:06.968Z,10.35
2022-11-13T20:20:54.837Z,10.31
2022-11-13T20:23:41.616Z,10.32
2022-11-13T20:26:28.532Z,10.30
2022-11-13T20:29:14.332Z,10.31
2022-11-13T20:32:01.140Z,10.35
2022-11-13T20:34:46.662Z,10.34
2022-11-13T20:37:32.971Z,10.35
2022-11-13T20:40:18.609Z,10.32
2022-11-13T20:43:04.529Z,10.34
2022-11-13T20:45:50.813Z,10.29
2022-11-13T20:48:37.498Z,10.26
2022-11-13T20:51:26.370Z,10.25
2022-11-13T20:54:12.049Z,10.27
2022-11-13T20:56:58.129Z,10.31
2022-11-13T20:59:43.809Z,10.29
2022-11-13T21:02:31.807Z,10.29
2022-11-13T21:05:18.009Z,10.29
2022-11-13T21:08:04.057Z,10.32
2022-11-13T21:10:49.690Z,10.37
2022-11-13T21:13:35.607Z,10.35
2022-11-13T21:16:21.613Z,10.38
2022-11-13T21:19:08.092Z,10.27
2022-11-13T21:21:54.051Z,10.32
2022-11-13T21:24:39.852Z,10.33
2022-11-13T21:27:25.569Z,10.25
2022-11-13T21:30:11.649Z,10.29
2022-11-13T21:33:01.011Z,10.26
2022-11-13T21:35:46.652Z,10.25
2022-11-13T21:38:32.854Z,10.26
2022-11-13T21:41:27.537Z,10.32
2022-11-13T21:44:13.247Z,10.32
2022-11-13T21:46:59.094Z,10.31
2022-11-13T21:49:44.975Z,10.33
2022-11-13T21:52:30.862Z,10.33
2022-11-13T21:55:16.652Z,10.34
2022-11-13T21:58:02.128Z,10.37
2022-11-13T22:00:48.172Z,10.39
2022-11-13T22:03:34.327Z,10.45
2022-11-13T22:06:27.409Z,10.44
2022-11-13T22:09:15.728Z,10.43
2022-11-13T22:12:01.332Z,10.45
2022-11-13T22:14:46.928Z,10.55
2022-11-13T22:17:32.970Z,10.54
2022-11-13T22:20:18.961Z,10.46
2022-11-13T22:23:06.413Z,10.48
2022-11-13T22:25:57.058Z,10.49
2022-11-13T22:28:45.898Z,10.44
2022-11-13T22:31:33.057Z,10.37
2022-11-13T22:34:18.648Z,10.38
2022-11-13T22:37:04.612Z,10.35
2022-11-13T22:39:50.208Z,10.36
2022-11-13T22:42:35.976Z,10.37
2022-11-13T22:45:24.046Z,10.40
2022-11-13T22:48:11.530Z,10.41
2022-11-13T22:51:03.769Z,10.44
2022-11-13T22:53:52.810Z,10.46
2022-11-13T22:56:41.182Z,10.47
2022-11-13T22:59:26.855Z,10.49
2022-11-13T23:02:12.809Z,10.49
2022-11-13T23:04:58.488Z,10.45
2022-11-13T23:07:44.248Z,10.45
2022-11-13T23:10:30.210Z,10.41
2022-11-13T23:13:16.053Z,10.42
2022-11-13T23:16:02.327Z,10.43
2022-11-13T23:18:48.131Z,10.42
2022-11-13T23:21:33.891Z,10.42
2022-11-13T23:24:19.653Z,10.43
2022-11-13T23:27:05.209Z,10.46
2022-11-13T23:29:51.135Z,10.47
2022-11-13T23:32:37.052Z,10.46
2022-11-13T23:35:22.852Z,10.48
2022-11-13T23:38:09.219Z,10.46
2022-11-13T23:40:56.132Z,10.42
2022-11-13T23:46:47.414Z,10.42
2022-11-13T23:49:33.502Z,10.44
2022-11-13T23:52:19.410Z,10.39
2022-11-13T23:55:05.449Z,10.42
2022-11-13T23:58:02.890Z,10.37
